createdAt,value
2018-02-09T00:01:12.724Z,50
2018-02-09T00:15:05.880Z,50
2018-02-09T00:30:07.796Z,51
2018-02-09T00:45:11.511Z,50
2018-02-09T01:00:04.645Z,50
2018-02-09T01:15:04.583Z,50
2018-02-09T01:30:05.345Z,49
2018-02-09T01:45:05.456Z,48
2018-02-09T02:00:04.956Z,50
2018-02-09T02:15:05.946Z,51
2018-02-09T02:30:08.304Z,52
2018-02-09T02:45:04.916Z,51
2018-02-09T03:00:06.061Z,51
2018-02-09T03:15:05.031Z,49
2018-02-09T03:30:05.203Z,50
2018-02-09T03:45:04.707Z,48
2018-02-09T04:00:05.471Z,48
2018-02-09T04:15:04.927Z,49
2018-02-09T04:30:05.268Z,50
2018-02-09T04:45:05.407Z,50
2018-02-09T05:00:04.554Z,50
2018-02-09T05:15:04.669Z,53
2018-02-09T05:30:08.409Z,53
2018-02-09T05:45:04.480Z,51
2018-02-09T06:00:04.892Z,54
2018-02-09T06:15:04.387Z,53
2018-02-09T06:30:04.771Z,53
2018-02-09T06:45:04.675Z,53
2018-02-09T07:00:05.062Z,56
2018-02-09T07:15:06.048Z,59
2018-02-09T07:30:04.790Z,56
2018-02-09T07:45:04.681Z,53
2018-02-09T08:00:04.565Z,52
2018-02-09T08:15:12.107Z,52
2018-02-09T08:30:06.442Z,52
2018-02-09T08:45:05.013Z,50
2018-02-09T09:00:04.432Z,50
2018-02-09T09:15:04.315Z,48
2018-02-09T09:30:04.974Z,50
2018-02-09T09:45:04.511Z,48
2018-02-09T10:00:04.959Z,50
2018-02-09T10:15:04.363Z,48
2018-02-09T10:30:04.958Z,48
2018-02-09T10:45:04.378Z,47
2018-02-09T11:00:05.217Z,48
2018-02-09T11:15:05.188Z,49
2018-02-09T11:30:04.380Z,48
2018-02-09T11:45:05.319Z,48
2018-02-09T12:00:05.228Z,47
2018-02-09T12:15:04.738Z,48
2018-02-09T12:30:04.883Z,47
2018-02-09T12:45:04.359Z,47
2018-02-09T13:00:04.718Z,47
2018-02-09T13:15:05.106Z,46
2018-02-09T13:30:05.175Z,46
2018-02-09T13:45:05.556Z,47
2018-02-09T14:00:04.962Z,47
2018-02-09T14:15:04.873Z,48
2018-02-09T14:30:04.503Z,47
2018-02-09T14:45:04.885Z,51
2018-02-09T15:00:05.314Z,49
2018-02-09T15:15:05.245Z,48
2018-02-09T15:30:04.997Z,47
2018-02-09T15:45:05.936Z,46
2018-02-09T16:00:04.328Z,46
2018-02-09T16:15:04.711Z,48
2018-02-09T16:30:04.868Z,48
2018-02-09T16:45:04.742Z,49
2018-02-09T17:00:04.639Z,48
2018-02-09T17:15:05.013Z,51
2018-02-09T17:30:06.163Z,51
2018-02-09T17:45:06.040Z,52
2018-02-09T18:00:05.020Z,51
2018-02-09T18:15:04.937Z,54
2018-02-09T18:30:05.187Z,54
2018-02-09T18:45:04.650Z,50
2018-02-09T19:00:05.490Z,49
2018-02-09T19:15:04.899Z,50
2018-02-09T19:30:05.139Z,51
2018-02-09T19:45:04.625Z,50
2018-02-09T20:00:05.119Z,48
2018-02-09T20:15:04.643Z,48
2018-02-09T20:30:04.974Z,47
2018-02-09T20:45:04.437Z,48
2018-02-09T21:00:04.833Z,49
2018-02-09T21:15:05.837Z,48
2018-02-09T21:30:05.018Z,48
2018-02-09T21:45:07.516Z,61
2018-02-09T22:00:04.938Z,49
2018-02-09T22:15:04.841Z,48
2018-02-09T22:30:04.509Z,47
2018-02-09T22:45:05.167Z,48
2018-02-09T23:00:04.604Z,49
2018-02-09T23:15:05.778Z,49
2018-02-09T23:30:05.169Z,48
2018-02-09T23:45:06.574Z,48
